Weather at Erfurt Airport

Public forecast

Using degrees Celsius for public forecast. Weather courtesy of forecast.io.

Current aviation weather report (METAR) for Erfurt Airport

2022/11/27 08:50 (retrieved 11 minutes ago)

EDDE 270850Z AUTO 19008KT CAVOK 03/01 Q1026 NOSIG

Aviation forecast (TAF) for Erfurt Airport

2022/11/27 06:27 (retrieved 3 hours ago)

TAF TAF EDDE 270500Z 2706/2806 18006KT CAVOK